Time;durP1;ratioP1;P1;durP2;ratioP2;P2;SDS_P1;SDS_P2;PMS_P1;PMS_P2;Temp;Humidity;BMP_temperature;BMP_pressure;BME280_temperature;BME280_humidity;BME280_pressure;Samples;Min_cycle;Max_cycle;Signal;HPM_P1;HPM_P2
2022/04/02 00:01:52;;;;;;;2.43;1.73;;;2.00;99.90;;;;;;5075479;27;20569;-43
2022/04/02 00:04:20;;;;;;;1.63;1.53;;;2.00;99.90;;;;;;5094899;27;20291;-44
2022/04/02 00:06:47;;;;;;;3.63;1.77;;;2.00;99.90;;;;;;5085554;27;20460;-43
2022/04/02 00:09:14;;;;;;;3.00;1.57;;;2.00;99.90;;;;;;5088076;28;20288;-44
2022/04/02 00:11:41;;;;;;;3.33;2.00;;;2.00;99.90;;;;;;5103547;27;20207;-43
2022/04/02 00:14:07;;;;;;;2.43;1.47;;;2.00;99.90;;;;;;5098694;27;20605;-44
2022/04/02 00:16:34;;;;;;;3.73;1.57;;;1.90;99.90;;;;;;5087374;28;20222;-43
2022/04/02 00:19:01;;;;;;;7.03;1.90;;;2.00;99.90;;;;;;5095704;27;20331;-43
2022/04/02 00:21:30;;;;;;;4.00;1.73;;;2.00;99.90;;;;;;5083924;27;20247;-44
2022/04/02 00:23:56;;;;;;;3.23;1.50;;;2.00;99.90;;;;;;5090565;27;20225;-44
2022/04/02 00:26:24;;;;;;;2.60;1.87;;;2.00;99.90;;;;;;5099920;28;20207;-44
2022/04/02 00:28:51;;;;;;;3.67;1.77;;;1.90;99.90;;;;;;5090723;28;20207;-43
2022/04/02 00:31:20;;;;;;;1.77;1.60;;;1.90;99.90;;;;;;5077664;28;20421;-43
2022/04/02 00:33:48;;;;;;;4.80;1.80;;;1.90;99.90;;;;;;5086376;28;20232;-43
2022/04/02 00:36:16;;;;;;;2.03;1.73;;;1.90;99.90;;;;;;5089001;27;20284;-44
2022/04/02 00:38:45;;;;;;;2.30;1.57;;;1.90;99.90;;;;;;5084203;28;20226;-42
2022/04/02 00:41:13;;;;;;;4.13;1.70;;;1.90;99.90;;;;;;5098744;27;20503;-43
2022/04/02 00:43:42;;;;;;;2.97;1.73;;;1.90;99.90;;;;;;5097618;28;20400;-44
2022/04/02 00:46:11;;;;;;;2.90;1.73;;;1.90;99.90;;;;;;5076531;27;20234;-45
2022/04/02 00:48:39;;;;;;;2.00;1.50;;;1.90;99.90;;;;;;5089193;28;20277;-43
2022/04/02 00:51:07;;;;;;;2.43;1.70;;;1.90;99.90;;;;;;5098982;27;20230;-44
2022/04/02 00:53:39;;;;;;;2.43;1.60;;;1.90;99.90;;;;;;5083091;27;20380;-43
2022/04/02 00:56:07;;;;;;;3.53;1.70;;;1.90;99.90;;;;;;5087574;28;20285;-43
2022/04/02 00:58:34;;;;;;;2.70;1.73;;;1.80;99.90;;;;;;5096234;28;20477;-43
2022/04/02 01:01:02;;;;;;;3.23;2.00;;;1.90;99.90;;;;;;5093505;28;20300;-44
2022/04/02 01:03:29;;;;;;;2.97;2.00;;;1.80;99.90;;;;;;5084682;28;20524;-43
2022/04/02 01:05:55;;;;;;;4.80;1.80;;;1.90;99.90;;;;;;5092742;28;20783;-42
2022/04/02 01:08:22;;;;;;;4.07;2.13;;;1.80;99.90;;;;;;5077254;27;20303;-43
2022/04/02 01:10:49;;;;;;;3.50;2.17;;;1.80;99.90;;;;;;5089597;27;20452;-43
2022/04/02 01:13:18;;;;;;;4.30;1.80;;;1.80;99.90;;;;;;5097139;27;20571;-42
2022/04/02 01:15:45;;;;;;;5.53;1.90;;;1.80;99.90;;;;;;5092836;28;20224;-43
2022/04/02 01:18:12;;;;;;;2.87;1.93;;;1.80;99.90;;;;;;5081919;27;20801;-43
2022/04/02 01:20:38;;;;;;;5.47;1.70;;;1.80;99.90;;;;;;5097449;28;20266;-43
2022/04/02 01:23:08;;;;;;;5.63;2.13;;;1.70;99.90;;;;;;5081830;27;20199;-44
2022/04/02 01:25:35;;;;;;;2.90;2.03;;;1.80;99.90;;;;;;5087487;28;20242;-44
2022/04/02 01:28:04;;;;;;;3.40;2.03;;;1.80;99.90;;;;;;5101943;27;20277;-45
2022/04/02 01:30:31;;;;;;;2.50;1.90;;;1.70;99.90;;;;;;5099225;28;20204;-44
2022/04/02 01:32:58;;;;;;;2.00;1.80;;;1.70;99.90;;;;;;5077315;28;20314;-45
2022/04/02 01:35:25;;;;;;;5.53;2.23;;;1.70;99.90;;;;;;5089276;28;20311;-43
2022/04/02 01:37:52;;;;;;;4.53;1.97;;;1.70;99.90;;;;;;5086290;28;20244;-45
2022/04/02 01:40:21;;;;;;;9.77;2.00;;;1.70;99.90;;;;;;5087621;27;20240;-44
2022/04/02 01:42:48;;;;;;;3.50;1.90;;;1.70;99.90;;;;;;5097847;28;20229;-42
2022/04/02 01:45:16;;;;;;;3.73;2.03;;;1.70;99.90;;;;;;5100873;28;20572;-44
2022/04/02 01:47:43;;;;;;;3.07;2.23;;;1.70;99.90;;;;;;5095148;28;20202;-43
2022/04/02 01:50:11;;;;;;;4.60;1.90;;;1.70;99.90;;;;;;5077617;27;20877;-44
2022/04/02 01:52:38;;;;;;;2.40;1.80;;;1.70;99.90;;;;;;5093759;28;20216;-43
2022/04/02 01:55:06;;;;;;;2.37;1.80;;;1.70;99.90;;;;;;5088265;28;20262;-42
2022/04/02 01:57:34;;;;;;;3.70;2.40;;;1.70;99.90;;;;;;5092374;28;20360;-44
2022/04/02 02:00:02;;;;;;;3.43;2.03;;;1.60;99.90;;;;;;5088835;28;20226;-44
2022/04/02 02:02:29;;;;;;;4.97;1.90;;;1.70;99.90;;;;;;5089904;28;20224;-44
2022/04/02 02:04:56;;;;;;;3.17;1.87;;;1.70;99.90;;;;;;5082851;28;20260;-44
2022/04/02 02:07:23;;;;;;;2.20;1.67;;;1.60;99.90;;;;;;5072866;28;20208;-44
2022/04/02 02:09:49;;;;;;;6.93;2.20;;;1.60;99.90;;;;;;5103323;28;20563;-44
2022/04/02 02:12:16;;;;;;;3.10;1.80;;;1.60;99.90;;;;;;5085238;28;20283;-43
2022/04/02 02:14:44;;;;;;;3.20;1.90;;;1.60;99.90;;;;;;5087153;28;20615;-43
2022/04/02 02:17:11;;;;;;;3.93;2.50;;;1.60;99.90;;;;;;5099782;28;20233;-42
2022/04/02 02:19:38;;;;;;;2.33;1.97;;;1.60;99.90;;;;;;5079675;28;20322;-44
2022/04/02 02:22:05;;;;;;;3.77;2.00;;;1.60;99.90;;;;;;5098596;28;20240;-43
2022/04/02 02:24:33;;;;;;;2.97;1.90;;;1.60;99.90;;;;;;5091122;28;20336;-44
2022/04/02 02:27:01;;;;;;;2.43;1.87;;;1.60;99.90;;;;;;5094492;27;20247;-43
2022/04/02 02:29:28;;;;;;;2.53;1.77;;;1.60;99.90;;;;;;5073914;28;20324;-44
2022/04/02 02:31:57;;;;;;;3.17;2.07;;;1.50;99.90;;;;;;5098187;28;20211;-43
2022/04/02 02:37:09;;;;;;;3.90;2.20;;;1.50;99.90;;;;;;5087822;28;20251;-43
2022/04/02 02:39:36;;;;;;;5.03;2.33;;;1.40;99.90;;;;;;5087698;27;20220;-44
2022/04/02 02:42:03;;;;;;;3.17;1.93;;;1.40;99.90;;;;;;5094568;28;20211;-42
2022/04/02 02:44:30;;;;;;;3.87;2.00;;;1.40;99.90;;;;;;5071955;28;20722;-44
2022/04/02 02:46:58;;;;;;;3.10;1.70;;;1.40;99.90;;;;;;5096320;28;20213;-45
2022/04/02 02:49:25;;;;;;;4.00;2.20;;;1.40;99.90;;;;;;5076999;28;21249;-44
2022/04/02 02:51:52;;;;;;;2.60;1.93;;;1.40;99.90;;;;;;5085937;28;20221;-44
2022/04/02 02:54:19;;;;;;;3.10;2.00;;;1.30;99.90;;;;;;5084124;28;20422;-43
2022/04/02 02:56:46;;;;;;;4.83;2.37;;;1.40;99.90;;;;;;5089483;28;20224;-44
2022/04/02 02:59:12;;;;;;;2.03;1.80;;;1.30;99.90;;;;;;5084040;28;20292;-44
2022/04/02 03:01:39;;;;;;;3.17;1.90;;;1.30;99.90;;;;;;5088452;28;20637;-44
2022/04/02 03:04:07;;;;;;;1.67;1.57;;;1.30;99.90;;;;;;5092538;28;20300;-45
2022/04/02 03:06:34;;;;;;;8.67;2.00;;;1.30;99.90;;;;;;5082594;28;20289;-44
2022/04/02 03:09:01;;;;;;;3.93;2.23;;;1.30;99.90;;;;;;5087998;28;20209;-45
2022/04/02 03:11:28;;;;;;;5.40;2.13;;;1.30;99.90;;;;;;5083646;28;20793;-44
2022/04/02 03:13:56;;;;;;;4.30;2.10;;;1.30;99.90;;;;;;5095973;28;20603;-44
2022/04/02 03:16:23;;;;;;;2.27;1.67;;;1.30;99.90;;;;;;5069520;28;20306;-45
2022/04/02 03:18:49;;;;;;;3.77;1.70;;;1.30;99.90;;;;;;5092576;28;20280;-44
2022/04/02 03:21:18;;;;;;;3.67;2.20;;;1.30;99.90;;;;;;5076970;28;20224;-44
2022/04/02 03:23:44;;;;;;;3.33;2.33;;;1.30;99.90;;;;;;5084687;28;20443;-43
2022/04/02 03:26:11;;;;;;;4.07;2.10;;;1.40;99.90;;;;;;5079687;28;20233;-43
2022/04/02 03:28:38;;;;;;;3.60;1.80;;;1.30;99.90;;;;;;5087306;28;20217;-43
2022/04/02 03:31:05;;;;;;;3.07;2.00;;;1.30;99.90;;;;;;5085428;28;20507;-44
2022/04/02 03:33:32;;;;;;;5.43;2.20;;;1.30;99.90;;;;;;5082268;28;20887;-44
2022/04/02 03:35:58;;;;;;;2.90;2.30;;;1.20;99.90;;;;;;5083371;28;20227;-44
2022/04/02 03:38:27;;;;;;;3.27;2.10;;;1.10;99.90;;;;;;5086536;28;20487;-44
2022/04/02 03:40:56;;;;;;;4.73;2.40;;;1.10;99.90;;;;;;5085969;28;20454;-44
2022/04/02 03:43:23;;;;;;;3.07;1.97;;;1.10;99.90;;;;;;5091001;28;20492;-44
2022/04/02 03:45:50;;;;;;;3.63;2.30;;;1.10;99.90;;;;;;5096496;27;21141;-44
2022/04/02 03:48:17;;;;;;;4.00;2.20;;;1.10;99.90;;;;;;5074519;27;20210;-43
2022/04/02 03:50:43;;;;;;;5.37;2.37;;;1.20;99.90;;;;;;5077913;28;20224;-43
2022/04/02 03:53:10;;;;;;;4.20;2.37;;;1.10;99.90;;;;;;5085841;28;20213;-45
2022/04/02 03:55:38;;;;;;;3.67;2.63;;;1.10;99.90;;;;;;5080922;27;20745;-44
2022/04/02 03:58:05;;;;;;;2.73;2.10;;;1.20;99.90;;;;;;5096284;27;20225;-44
2022/04/02 04:00:32;;;;;;;2.73;2.20;;;1.10;99.90;;;;;;5090914;28;20238;-44
2022/04/02 04:02:59;;;;;;;3.33;2.30;;;1.10;99.90;;;;;;5088461;28;20211;-43
2022/04/02 04:05:26;;;;;;;2.90;2.30;;;1.10;99.90;;;;;;5094592;27;20201;-43
2022/04/02 04:07:53;;;;;;;4.47;2.30;;;1.10;99.90;;;;;;5076585;28;20216;-44
2022/04/02 04:10:20;;;;;;;4.67;2.57;;;1.10;99.90;;;;;;5084246;28;20501;-45
2022/04/02 04:12:48;;;;;;;3.10;2.20;;;1.00;99.90;;;;;;5090828;27;20322;-44
2022/04/02 04:15:15;;;;;;;5.13;2.63;;;1.00;99.90;;;;;;5089152;28;20249;-43
2022/04/02 04:17:42;;;;;;;4.20;2.60;;;1.00;99.90;;;;;;5083140;27;20723;-44
2022/04/02 04:20:11;;;;;;;3.33;2.30;;;0.90;99.90;;;;;;5090848;28;20217;-43
2022/04/02 04:22:37;;;;;;;4.00;2.37;;;1.00;99.90;;;;;;5073950;27;20779;-44
2022/04/02 04:25:05;;;;;;;7.70;2.47;;;1.00;99.90;;;;;;5098317;28;20264;-48
2022/04/02 04:27:32;;;;;;;5.43;2.90;;;0.90;99.90;;;;;;5073874;27;20359;-43
2022/04/02 04:30:01;;;;;;;4.83;2.87;;;0.90;99.90;;;;;;5094208;28;20205;-44
2022/04/02 04:32:28;;;;;;;4.90;2.73;;;1.00;99.90;;;;;;5084387;27;20468;-43
2022/04/02 04:34:55;;;;;;;4.00;2.50;;;1.00;99.90;;;;;;5086302;27;20318;-43
2022/04/02 04:37:23;;;;;;;2.70;2.27;;;1.00;99.90;;;;;;5068483;27;20305;-44
2022/04/02 04:39:49;;;;;;;3.83;2.83;;;1.00;99.90;;;;;;5093640;27;20643;-43
2022/04/02 04:42:17;;;;;;;5.03;2.80;;;1.00;99.90;;;;;;5081601;28;20537;-44
2022/04/02 04:44:44;;;;;;;4.27;2.73;;;1.00;99.90;;;;;;5089256;27;20208;-47
2022/04/02 04:47:12;;;;;;;3.90;2.13;;;1.00;99.90;;;;;;5087390;27;20266;-44
2022/04/02 04:49:39;;;;;;;3.53;2.43;;;1.00;99.90;;;;;;5086063;27;20392;-45
2022/04/02 04:52:06;;;;;;;3.43;2.30;;;1.00;99.90;;;;;;5095356;28;20231;-44
2022/04/02 04:54:33;;;;;;;4.57;2.30;;;0.90;99.90;;;;;;5076571;27;20233;-45
2022/04/02 04:57:00;;;;;;;6.00;3.10;;;0.90;99.90;;;;;;5089886;28;20254;-44
2022/04/02 04:59:27;;;;;;;3.27;2.40;;;0.90;99.90;;;;;;5085182;28;20213;-45
2022/04/02 05:01:54;;;;;;;4.73;2.80;;;0.90;99.90;;;;;;5089535;27;20385;-44
2022/04/02 05:04:22;;;;;;;3.23;2.63;;;0.90;99.90;;;;;;5076756;28;20298;-44
2022/04/02 05:06:49;;;;;;;2.80;2.50;;;0.90;99.90;;;;;;5082050;27;20653;-42
2022/04/02 05:09:16;;;;;;;3.60;2.33;;;0.90;99.90;;;;;;5075772;27;20254;-47
2022/04/02 05:11:43;;;;;;;9.30;3.13;;;0.90;99.90;;;;;;5095626;27;20240;-42
2022/04/02 05:14:12;;;;;;;7.43;2.40;;;0.90;99.90;;;;;;5077435;28;20370;-43
2022/04/02 05:16:39;;;;;;;5.17;2.47;;;0.90;99.90;;;;;;5095551;28;20204;-43
2022/04/02 05:19:07;;;;;;;6.43;2.43;;;0.90;99.90;;;;;;5073760;27;20275;-44
2022/04/02 05:21:35;;;;;;;4.13;2.20;;;0.80;99.90;;;;;;5093620;28;20437;-47
2022/04/02 05:24:02;;;;;;;11.47;3.07;;;0.80;99.90;;;;;;5066516;27;20652;-47
2022/04/02 05:26:29;;;;;;;4.80;2.50;;;0.80;99.90;;;;;;5076785;28;20213;-47
2022/04/02 05:28:56;;;;;;;2.93;2.23;;;0.80;99.90;;;;;;5074197;27;20304;-47
2022/04/02 05:31:23;;;;;;;4.33;2.80;;;0.80;99.90;;;;;;5089086;28;20432;-43
2022/04/02 05:33:49;;;;;;;5.03;2.43;;;0.80;99.90;;;;;;5068846;27;22557;-46
2022/04/02 05:36:16;;;;;;;4.10;2.70;;;0.80;99.90;;;;;;5083961;28;20403;-45
2022/04/02 05:38:44;;;;;;;3.80;2.63;;;0.70;99.90;;;;;;5076315;28;20232;-44
2022/04/02 05:41:11;;;;;;;4.10;2.63;;;0.70;99.90;;;;;;5075859;28;21199;-44
2022/04/02 05:43:38;;;;;;;5.50;2.60;;;0.70;99.90;;;;;;5085711;28;20229;-43
2022/04/02 05:46:05;;;;;;;6.13;2.87;;;0.80;99.90;;;;;;5080041;28;20511;-44
2022/04/02 05:48:33;;;;;;;3.40;2.57;;;0.80;99.90;;;;;;5077288;27;20235;-45
2022/04/02 05:51:00;;;;;;;4.20;3.00;;;0.70;99.90;;;;;;5081195;28;20221;-44
2022/04/02 05:53:27;;;;;;;5.43;2.80;;;0.80;99.90;;;;;;5091614;28;20236;-45
2022/04/02 05:55:55;;;;;;;5.73;2.70;;;0.70;99.90;;;;;;5061064;28;20293;-44
2022/04/02 05:58:22;;;;;;;5.03;3.00;;;0.80;99.90;;;;;;5090168;28;20929;-44
2022/04/02 06:00:50;;;;;;;3.97;2.50;;;0.80;99.90;;;;;;5065132;27;20358;-43
2022/04/02 06:03:19;;;;;;;4.00;3.00;;;0.80;99.90;;;;;;5058420;28;20229;-44
2022/04/02 06:05:48;;;;;;;5.27;2.77;;;0.80;99.90;;;;;;5084702;27;20499;-44
2022/04/02 06:08:15;;;;;;;4.63;3.07;;;0.80;99.90;;;;;;5080069;28;20275;-44
2022/04/02 06:10:43;;;;;;;5.97;2.67;;;0.90;99.90;;;;;;5060635;28;20240;-45
2022/04/02 06:13:11;;;;;;;6.57;3.20;;;0.90;99.90;;;;;;5093745;27;20284;-43
2022/04/02 06:15:38;;;;;;;5.73;2.60;;;0.90;99.90;;;;;;5081634;27;20278;-44
2022/04/02 06:18:06;;;;;;;3.70;2.37;;;0.90;99.90;;;;;;5073210;27;20220;-44
2022/04/02 06:20:33;;;;;;;4.47;2.97;;;0.90;99.90;;;;;;5089944;27;20232;-44
2022/04/02 06:23:00;;;;;;;4.10;2.57;;;1.00;99.90;;;;;;5075707;27;20276;-43
2022/04/02 06:25:27;;;;;;;4.03;2.87;;;1.00;99.90;;;;;;5054241;28;20205;-48
2022/04/02 06:27:54;;;;;;;4.50;2.60;;;1.00;99.90;;;;;;5094898;28;20316;-45
2022/04/02 06:30:23;;;;;;;3.83;2.77;;;1.10;99.90;;;;;;5081046;28;20365;-44
2022/04/02 06:32:50;;;;;;;8.70;3.57;;;1.10;99.90;;;;;;5081407;28;20211;-44
2022/04/02 06:35:18;;;;;;;4.97;2.93;;;1.20;99.90;;;;;;5074760;28;20228;-42
2022/04/02 06:37:45;;;;;;;5.93;2.90;;;1.20;99.90;;;;;;5084682;28;20568;-44
2022/04/02 06:40:12;;;;;;;3.47;2.57;;;1.30;99.90;;;;;;5061961;28;20224;-42
2022/04/02 06:42:39;;;;;;;5.80;3.00;;;1.30;99.90;;;;;;5076363;28;20502;-43
2022/04/02 06:45:07;;;;;;;4.67;2.77;;;1.40;99.90;;;;;;5088699;28;20229;-44
2022/04/02 06:47:36;;;;;;;4.53;3.23;;;1.50;99.90;;;;;;5068882;28;20251;-42
2022/04/02 06:50:05;;;;;;;5.63;2.90;;;1.50;99.90;;;;;;5075992;28;20417;-43
2022/04/02 06:52:32;;;;;;;4.50;3.13;;;1.60;99.90;;;;;;5069504;28;20244;-43
2022/04/02 06:54:59;;;;;;;4.40;2.37;;;1.60;99.90;;;;;;5067966;28;20227;-44
2022/04/02 06:57:26;;;;;;;4.33;3.00;;;1.70;99.90;;;;;;5064507;28;20213;-44
2022/04/02 06:59:53;;;;;;;5.20;3.40;;;1.80;99.90;;;;;;5086695;28;20207;-43
2022/04/02 07:02:20;;;;;;;3.47;2.37;;;1.80;99.90;;;;;;5058397;28;20498;-44
2022/04/02 07:04:49;;;;;;;4.50;2.73;;;1.90;99.90;;;;;;5073663;28;20795;-43
2022/04/02 07:07:16;;;;;;;4.13;3.00;;;1.90;99.90;;;;;;5069457;28;20571;-44
2022/04/02 07:09:43;;;;;;;5.47;2.87;;;2.00;99.90;;;;;;5083175;27;20216;-44
2022/04/02 07:12:11;;;;;;;3.57;3.10;;;2.00;99.90;;;;;;5059499;28;20210;-44
2022/04/02 07:14:38;;;;;;;3.37;2.40;;;2.10;99.90;;;;;;5090936;28;20323;-43
2022/04/02 07:17:06;;;;;;;4.47;2.80;;;2.10;99.90;;;;;;5066686;28;20210;-45
2022/04/02 07:19:34;;;;;;;4.43;3.00;;;2.20;99.90;;;;;;5097033;27;20204;-45
2022/04/02 07:22:02;;;;;;;3.73;2.70;;;2.20;99.90;;;;;;5076382;27;20640;-45
2022/04/02 07:24:32;;;;;;;4.30;3.03;;;2.20;99.90;;;;;;5099893;27;20574;-44
2022/04/02 07:27:00;;;;;;;3.50;2.47;;;2.40;99.90;;;;;;5066991;27;20214;-45
2022/04/02 07:29:27;;;;;;;5.03;2.67;;;2.40;99.90;;;;;;5097450;27;20462;-44
2022/04/02 07:31:54;;;;;;;5.63;3.17;;;2.50;99.90;;;;;;5097826;27;20440;-48
2022/04/02 07:34:22;;;;;;;3.37;2.53;;;2.60;99.90;;;;;;5087372;27;20378;-42
2022/04/02 07:36:58;;;;;;;4.43;2.70;;;2.60;99.90;;;;;;5086320;27;20214;-43
2022/04/02 07:39:33;;;;;;;2.30;2.03;;;2.60;99.90;;;;;;5081983;27;20282;-43
2022/04/02 07:42:11;;;;;;;4.40;2.37;;;2.70;99.90;;;;;;5070901;27;20299;-42
2022/04/02 07:44:50;;;;;;;4.37;2.50;;;2.80;99.90;;;;;;5088415;27;20224;-43
2022/04/02 07:47:20;;;;;;;3.43;2.43;;;2.80;99.90;;;;;;5089576;27;20241;-43
2022/04/02 07:49:48;;;;;;;8.13;2.60;;;3.10;99.90;;;;;;5084289;27;20398;-44
2022/04/02 07:52:15;;;;;;;8.40;2.90;;;3.00;99.90;;;;;;5083561;27;20207;-43
2022/04/02 07:54:44;;;;;;;2.87;2.17;;;3.10;99.90;;;;;;5081316;27;20489;-44
2022/04/02 07:57:14;;;;;;;3.23;2.13;;;3.20;99.90;;;;;;5066616;28;20602;-43
2022/04/02 07:59:44;;;;;;;4.20;2.30;;;3.30;99.90;;;;;;5075391;27;20235;-44
2022/04/02 08:04:54;;;;;;;7.30;2.67;;;3.30;99.90;;;;;;5084495;27;20733;-45
2022/04/02 08:07:21;;;;;;;3.60;2.60;;;3.50;99.90;;;;;;5070827;27;20281;-43
2022/04/02 08:09:52;;;;;;;3.47;2.60;;;3.50;99.90;;;;;;5076612;28;21254;-44
2022/04/02 08:12:19;;;;;;;3.93;2.30;;;3.50;99.90;;;;;;5064946;28;20197;-43
2022/04/02 08:14:48;;;;;;;3.50;2.63;;;3.60;99.90;;;;;;5081815;27;20497;-44
2022/04/02 08:17:15;;;;;;;6.10;2.57;;;3.70;99.90;;;;;;5098865;27;20276;-43
2022/04/02 08:19:42;;;;;;;4.37;2.43;;;3.70;99.90;;;;;;5070777;27;20202;-44
2022/04/02 08:22:09;;;;;;;5.03;2.40;;;3.80;99.90;;;;;;5090600;27;20321;-44
2022/04/02 08:24:36;;;;;;;3.17;2.40;;;3.90;99.90;;;;;;5065187;27;20218;-44
2022/04/02 08:27:13;;;;;;;3.20;2.20;;;4.00;99.90;;;;;;5080696;27;20558;-44
2022/04/02 08:29:57;;;;;;;6.50;2.70;;;4.00;99.90;;;;;;5062996;27;20254;-43
2022/04/02 08:32:33;;;;;;;4.40;2.00;;;4.10;99.90;;;;;;5061017;27;20206;-44
2022/04/02 08:35:06;;;;;;;5.23;2.30;;;4.20;99.90;;;;;;5062415;27;20308;-44
2022/04/02 08:38:02;;;;;;;2.60;2.00;;;4.40;99.90;;;;;;5074909;27;20204;-43
2022/04/02 08:40:46;;;;;;;2.93;2.20;;;4.40;99.90;;;;;;5061642;27;20225;-45
2022/04/02 08:44:08;;;;;;;4.20;2.00;;;4.40;99.90;;;;;;5085063;27;20228;-45
2022/04/02 08:46:36;;;;;;;4.53;2.40;;;4.50;99.90;;;;;;5069467;27;20699;-43
2022/04/02 08:49:23;;;;;;;2.93;1.93;;;4.50;99.90;;;;;;5083443;27;20409;-44
2022/04/02 08:52:12;;;;;;;4.30;2.43;;;4.50;99.90;;;;;;5074546;27;20207;-43
2022/04/02 08:54:42;;;;;;;2.20;1.80;;;4.50;99.90;;;;;;5076296;27;20265;-45
2022/04/02 08:57:26;;;;;;;2.87;2.10;;;4.30;99.90;;;;;;5070750;27;20309;-45
2022/04/02 09:00:05;;;;;;;2.90;1.80;;;4.30;99.90;;;;;;5060938;27;20210;-43
2022/04/02 09:03:09;;;;;;;2.93;1.63;;;4.20;99.90;;;;;;5072537;27;20280;-46
2022/04/02 09:05:59;;;;;;;3.17;1.87;;;4.30;99.90;;;;;;5053024;27;20213;-44
2022/04/02 09:09:04;;;;;;;3.30;1.77;;;4.30;99.90;;;;;;5061371;27;20216;-44
2022/04/02 09:11:48;;;;;;;2.83;2.00;;;4.40;99.90;;;;;;5042966;27;20322;-48
2022/04/02 09:14:42;;;;;;;2.57;1.90;;;4.40;99.90;;;;;;5086018;27;20226;-46
2022/04/02 09:17:35;;;;;;;3.63;2.13;;;4.50;99.90;;;;;;5073138;27;20321;-45
2022/04/02 09:20:24;;;;;;;2.57;1.80;;;4.50;99.90;;;;;;5074999;27;20287;-44
2022/04/02 09:23:10;;;;;;;2.53;1.80;;;4.70;99.90;;;;;;5069069;27;20333;-46
2022/04/02 09:26:09;;;;;;;2.30;1.73;;;4.70;99.90;;;;;;5076071;27;20219;-48
2022/04/02 09:28:47;;;;;;;1.63;1.47;;;4.50;99.90;;;;;;5070195;27;20473;-48
2022/04/02 09:31:42;;;;;;;3.13;2.00;;;4.40;99.90;;;;;;5073166;27;20381;-42
2022/04/02 09:34:58;;;;;;;1.70;1.60;;;4.40;99.90;;;;;;5069088;27;20235;-48
2022/04/02 09:37:49;;;;;;;2.87;2.07;;;4.30;99.90;;;;;;5090656;27;20495;-44
2022/04/02 09:40:19;;;;;;;2.43;1.93;;;4.30;99.90;;;;;;5086032;27;20576;-45
2022/04/02 09:42:47;;;;;;;2.10;1.60;;;4.30;99.90;;;;;;5074197;28;20410;-44
2022/04/02 09:45:16;;;;;;;4.43;2.00;;;4.30;99.90;;;;;;5090057;27;20464;-44
2022/04/02 09:48:01;;;;;;;3.23;1.90;;;4.30;99.90;;;;;;5083304;27;20210;-44
2022/04/02 09:50:29;;;;;;;2.23;1.60;;;4.40;99.90;;;;;;5084803;27;20308;-45
2022/04/02 09:53:00;;;;;;;3.10;1.90;;;4.70;99.90;;;;;;5085268;27;20208;-45
2022/04/02 09:55:29;;;;;;;2.13;1.40;;;5.00;99.90;;;;;;5077317;27;20469;-45
2022/04/02 09:58:41;;;;;;;2.73;1.17;;;5.10;99.90;;;;;;5079142;27;20242;-45
2022/04/02 10:01:09;;;;;;;1.77;1.47;;;5.20;99.90;;;;;;5061454;27;20681;-45
2022/04/02 10:03:47;;;;;;;2.83;1.50;;;5.30;99.90;;;;;;5089417;27;20223;-45
2022/04/02 10:06:24;;;;;;;1.67;1.27;;;5.20;99.90;;;;;;5077875;27;20237;-44
2022/04/02 10:09:05;;;;;;;1.80;1.40;;;5.20;99.90;;;;;;5089382;27;20222;-45
2022/04/02 10:11:34;;;;;;;3.50;1.20;;;5.20;99.90;;;;;;5085813;27;20212;-45
2022/04/02 10:14:03;;;;;;;2.70;1.70;;;5.20;99.90;;;;;;5066729;27;20409;-45
2022/04/02 10:16:31;;;;;;;2.43;1.50;;;5.30;99.90;;;;;;5092928;27;20460;-44
2022/04/02 10:19:00;;;;;;;2.40;1.53;;;5.40;99.90;;;;;;5076232;27;20211;-47
2022/04/02 10:21:30;;;;;;;2.07;1.40;;;5.50;99.90;;;;;;5084752;27;20447;-46
2022/04/02 10:24:23;;;;;;;2.47;1.50;;;5.60;99.90;;;;;;5085734;27;20233;-48
2022/04/02 10:26:53;;;;;;;1.50;1.27;;;5.60;99.90;;;;;;5078666;28;20581;-45
2022/04/02 10:29:51;;;;;;;2.33;1.60;;;5.50;99.90;;;;;;5071466;27;20406;-45
2022/04/02 10:32:33;;;;;;;3.77;1.47;;;5.40;99.90;;;;;;5074455;27;20604;-45
2022/04/02 10:35:05;;;;;;;1.30;1.20;;;5.30;99.90;;;;;;5078573;28;20253;-45
2022/04/02 10:37:39;;;;;;;2.77;1.33;;;5.10;99.90;;;;;;5072738;28;20236;-44
2022/04/02 10:40:10;;;;;;;2.40;1.53;;;5.10;99.90;;;;;;5073588;28;20207;-45
2022/04/02 10:42:39;;;;;;;1.43;1.30;;;5.00;99.90;;;;;;5098492;28;20297;-44
2022/04/02 10:45:09;;;;;;;1.67;1.50;;;5.00;99.90;;;;;;5072872;28;20231;-44
2022/04/02 10:47:42;;;;;;;6.70;1.60;;;5.10;99.90;;;;;;5086946;27;20303;-44
2022/04/02 10:50:10;;;;;;;4.07;1.80;;;5.10;99.90;;;;;;5072089;28;20207;-44
2022/04/02 10:52:38;;;;;;;2.20;1.30;;;5.10;99.90;;;;;;5080450;28;20208;-44
2022/04/02 10:55:07;;;;;;;3.13;1.53;;;5.10;99.90;;;;;;5089460;27;20330;-44
2022/04/02 10:57:34;;;;;;;1.77;1.63;;;5.30;99.90;;;;;;5081725;27;20231;-43
2022/04/02 11:00:04;;;;;;;3.97;1.67;;;5.10;99.90;;;;;;5081411;27;20576;-44
2022/04/02 11:02:42;;;;;;;1.77;1.50;;;5.00;99.90;;;;;;5071162;27;20219;-43
2022/04/02 11:05:10;;;;;;;1.60;1.43;;;4.90;99.90;;;;;;5063880;27;20230;-44
2022/04/02 11:07:43;;;;;;;2.20;1.73;;;4.80;99.90;;;;;;5078836;27;20318;-44
2022/04/02 11:10:15;;;;;;;2.50;1.60;;;4.90;99.90;;;;;;5068391;27;20203;-44
2022/04/02 11:12:44;;;;;;;2.97;1.50;;;5.00;99.90;;;;;;5077278;27;21722;-45
2022/04/02 11:15:13;;;;;;;2.67;1.63;;;5.30;99.90;;;;;;5089939;27;20344;-45
2022/04/02 11:17:42;;;;;;;3.67;1.87;;;5.50;99.90;;;;;;5078683;27;20517;-45
2022/04/02 11:20:11;;;;;;;1.97;1.50;;;5.60;99.90;;;;;;5069281;27;20212;-44
2022/04/02 11:23:03;;;;;;;4.87;1.73;;;5.40;99.90;;;;;;5086432;27;20772;-45
2022/04/02 11:25:37;;;;;;;1.57;1.37;;;5.10;99.90;;;;;;5079831;27;20218;-45
2022/04/02 11:28:11;;;;;;;5.87;1.50;;;5.00;99.90;;;;;;5076457;27;20510;-45
2022/04/02 11:30:40;;;;;;;2.33;1.70;;;4.80;99.90;;;;;;5082695;27;20248;-45
2022/04/02 11:33:08;;;;;;;3.43;1.60;;;4.70;99.90;;;;;;5080554;27;20369;-44
2022/04/02 11:35:39;;;;;;;2.10;1.17;;;4.60;99.90;;;;;;5066028;27;20215;-45
2022/04/02 11:38:17;;;;;;;2.20;1.47;;;4.60;99.90;;;;;;5070586;27;20493;-45
2022/04/02 11:40:52;;;;;;;2.50;1.37;;;4.60;99.90;;;;;;5075107;27;20198;-45
2022/04/02 11:43:19;;;;;;;1.40;1.30;;;4.50;99.90;;;;;;5063522;27;20226;-45
2022/04/02 11:45:48;;;;;;;2.23;1.37;;;4.70;99.90;;;;;;5075806;27;20214;-45
2022/04/02 11:48:18;;;;;;;3.20;1.50;;;4.70;99.90;;;;;;5081568;27;20207;-44
2022/04/02 11:50:46;;;;;;;1.43;1.27;;;4.70;99.90;;;;;;5080630;27;20215;-43
2022/04/02 11:53:14;;;;;;;2.43;1.23;;;4.80;99.90;;;;;;5075293;27;20490;-44
2022/04/02 11:55:42;;;;;;;4.20;1.90;;;4.70;99.90;;;;;;5079926;27;20217;-43
2022/04/02 11:58:12;;;;;;;1.97;1.40;;;4.70;99.90;;;;;;5074189;27;20209;-44
2022/04/02 12:00:41;;;;;;;2.13;1.60;;;4.70;99.90;;;;;;5076683;27;20210;-43
2022/04/02 12:03:21;;;;;;;2.70;1.87;;;4.70;99.90;;;;;;5081841;27;20792;-45
2022/04/02 12:05:49;;;;;;;2.30;1.70;;;5.00;99.90;;;;;;5077114;27;20207;-43
2022/04/02 12:08:28;;;;;;;3.20;1.90;;;5.30;99.90;;;;;;5068578;27;20632;-46
2022/04/02 12:10:55;;;;;;;2.67;1.63;;;5.30;99.90;;;;;;5080315;27;20217;-44
2022/04/02 12:13:24;;;;;;;2.00;1.60;;;5.30;99.90;;;;;;5082121;27;20268;-44
2022/04/02 12:16:03;;;;;;;2.13;1.63;;;5.30;99.90;;;;;;5061157;27;20282;-43
2022/04/02 12:18:30;;;;;;;3.53;1.80;;;5.20;99.90;;;;;;5077627;27;20203;-43
2022/04/02 12:21:04;;;;;;;3.00;1.97;;;5.00;99.90;;;;;;5093796;27;20255;-45
2022/04/02 12:23:31;;;;;;;1.80;1.67;;;4.90;99.90;;;;;;5066911;27;20233;-44
2022/04/02 12:26:00;;;;;;;6.70;2.37;;;4.90;99.90;;;;;;5082629;27;20237;-44
2022/04/02 12:28:28;;;;;;;2.07;1.87;;;4.90;99.90;;;;;;5074108;28;20290;-45
2022/04/02 12:31:04;;;;;;;5.23;2.20;;;4.90;99.90;;;;;;5082146;28;20213;-44
2022/04/02 12:33:32;;;;;;;2.73;1.83;;;4.80;99.90;;;;;;5081123;28;20298;-44
2022/04/02 12:36:01;;;;;;;3.70;1.83;;;4.90;99.90;;;;;;5084497;27;20434;-43
2022/04/02 12:38:30;;;;;;;2.60;1.83;;;4.90;99.90;;;;;;5081771;27;20230;-44
2022/04/02 12:40:57;;;;;;;10.27;2.17;;;5.00;99.90;;;;;;5071558;27;20207;-44
2022/04/02 12:43:26;;;;;;;5.07;2.00;;;5.10;99.90;;;;;;5092421;27;20227;-44
2022/04/02 12:45:55;;;;;;;3.67;1.80;;;5.20;99.90;;;;;;5086571;27;20519;-44
2022/04/02 12:48:24;;;;;;;4.27;1.70;;;5.30;99.90;;;;;;5082785;27;20208;-44
2022/04/02 12:50:54;;;;;;;1.70;1.60;;;5.40;99.90;;;;;;5071625;27;20264;-44
2022/04/02 12:53:29;;;;;;;4.50;2.07;;;5.40;99.90;;;;;;5092445;27;20225;-44
2022/04/02 12:55:57;;;;;;;2.70;1.50;;;5.50;99.90;;;;;;5080362;27;20317;-44
2022/04/02 12:58:32;;;;;;;1.50;1.40;;;5.60;99.90;;;;;;5087513;27;20244;-44
2022/04/02 13:01:10;;;;;;;3.10;1.40;;;5.80;99.90;;;;;;5082650;27;20190;-44
2022/04/02 13:03:43;;;;;;;2.90;1.40;;;5.70;99.90;;;;;;5087629;27;20478;-45
2022/04/02 13:06:18;;;;;;;1.50;1.40;;;5.70;99.90;;;;;;5073685;27;20219;-44
2022/04/02 13:08:56;;;;;;;2.17;1.50;;;5.70;99.90;;;;;;5080044;27;20209;-45
2022/04/02 13:11:38;;;;;;;3.10;2.23;;;5.60;99.90;;;;;;5094896;27;20213;-44
2022/04/02 13:14:13;;;;;;;2.20;1.83;;;5.60;99.90;;;;;;5076906;27;20707;-44
2022/04/02 13:16:42;;;;;;;3.00;2.33;;;5.50;99.90;;;;;;5077628;27;20990;-44
2022/04/02 13:22:02;;;;;;;2.20;1.90;;;5.50;99.90;;;;;;5071205;27;20206;-44
2022/04/02 13:24:34;;;;;;;5.40;2.50;;;5.40;99.90;;;;;;5048669;27;20430;-45